Time;durP1;ratioP1;P1;durP2;ratioP2;P2;SDS_P1;SDS_P2;PMS_P1;PMS_P2;Temp;Humidity;BMP_temperature;BMP_pressure;BME280_temperature;BME280_humidity;BME280_pressure;Samples;Min_cycle;Max_cycle;Signal;HPM_P1;HPM_P2
2022/07/31 00:02:16;;;;;;;4.72;2.97;;;;;;;18.56;100.00;100729.25;5065559;28;20055;-70
2022/07/31 00:04:41;;;;;;;5.78;3.20;;;;;;;18.52;100.00;100725.16;5060547;28;20029;-69
2022/07/31 00:07:06;;;;;;;5.43;3.15;;;;;;;18.55;100.00;100730.22;5073297;28;20090;-69
2022/07/31 00:09:32;;;;;;;5.93;3.30;;;;;;;18.44;100.00;100722.19;5060772;28;20132;-69
2022/07/31 00:11:57;;;;;;;8.63;2.95;;;;;;;18.46;100.00;100730.88;5071355;28;20066;-69
2022/07/31 00:14:23;;;;;;;4.57;2.83;;;;;;;18.34;100.00;100722.91;5074423;28;20034;-69
2022/07/31 00:16:48;;;;;;;6.05;3.20;;;;;;;18.27;100.00;100711.03;5073254;28;20047;-69
2022/07/31 00:19:13;;;;;;;14.52;3.15;;;;;;;18.05;100.00;100684.38;5063299;28;20024;-69
2022/07/31 00:21:39;;;;;;;8.63;3.30;;;;;;;18.25;100.00;100718.28;5073660;28;20060;-68
2022/07/31 00:24:04;;;;;;;6.10;3.20;;;;;;;18.27;100.00;100721.69;5084601;28;20024;-68
2022/07/31 00:26:30;;;;;;;8.30;3.22;;;;;;;18.19;100.00;100707.25;5071085;28;20833;-68
2022/07/31 00:28:55;;;;;;;5.55;3.42;;;;;;;18.17;100.00;100704.75;5061677;28;20060;-68
2022/07/31 00:31:20;;;;;;;7.05;3.50;;;;;;;18.24;100.00;100718.41;5057830;28;20052;-68
2022/07/31 00:33:46;;;;;;;7.82;3.47;;;;;;;18.19;100.00;100712.59;5068950;28;20108;-69
2022/07/31 00:36:12;;;;;;;6.85;3.85;;;;;;;18.28;100.00;100718.03;5060335;28;20478;-69
2022/07/31 00:38:38;;;;;;;11.70;3.95;;;;;;;18.26;100.00;100712.00;5063785;28;20086;-69
2022/07/31 00:41:03;;;;;;;5.55;3.42;;;;;;;18.37;100.00;100722.66;5066987;28;20024;-69
2022/07/31 00:43:29;;;;;;;5.30;3.20;;;;;;;18.40;100.00;100716.25;5059304;28;20119;-69
2022/07/31 00:45:56;;;;;;;7.68;3.70;;;;;;;18.42;100.00;100711.66;5061651;28;20094;-69
2022/07/31 00:48:22;;;;;;;7.22;3.90;;;;;;;18.49;100.00;100709.34;5069944;28;20078;-69
2022/07/31 00:50:47;;;;;;;6.55;3.03;;;;;;;18.56;100.00;100715.94;5051702;28;20033;-69
2022/07/31 00:53:13;;;;;;;8.05;3.13;;;;;;;18.60;100.00;100706.75;5090977;28;20016;-69
2022/07/31 00:55:38;;;;;;;5.97;3.38;;;;;;;18.35;100.00;100662.56;5062461;28;20112;-69
2022/07/31 00:58:04;;;;;;;4.47;2.83;;;;;;;18.68;100.00;100715.00;5084395;28;20027;-70
2022/07/31 01:00:29;;;;;;;4.43;2.85;;;;;;;18.75;100.00;100718.88;5073928;28;20070;-70
2022/07/31 01:02:54;;;;;;;6.70;3.53;;;;;;;18.72;100.00;100717.25;5072800;28;20036;-70
2022/07/31 01:05:20;;;;;;;5.82;2.70;;;;;;;18.74;100.00;100717.16;5053474;28;20043;-70
2022/07/31 01:07:47;;;;;;;5.50;2.97;;;;;;;18.69;100.00;100706.03;5055429;28;20031;-70
2022/07/31 01:10:18;;;;;;;5.07;3.03;;;;;;;18.77;100.00;100714.25;5057956;28;20020;-70
2022/07/31 01:12:47;;;;;;;6.78;3.13;;;;;;;18.87;100.00;100723.22;5079274;28;20025;-70
2022/07/31 01:15:12;;;;;;;7.53;3.72;;;;;;;18.90;100.00;100725.63;5066317;28;20060;-70
2022/07/31 01:17:39;;;;;;;5.78;3.45;;;;;;;18.91;100.00;100719.34;5055235;28;20470;-70
2022/07/31 01:20:05;;;;;;;4.97;2.78;;;;;;;18.84;100.00;100708.31;5060104;28;20029;-71
2022/07/31 01:22:55;;;;;;;5.63;2.72;;;;;;;18.96;100.00;100719.81;5052526;28;20056;-71
2022/07/31 01:25:39;;;;;;;5.53;3.35;;;;;;;18.96;100.00;100722.47;5056793;28;20081;-71
2022/07/31 01:28:25;;;;;;;5.78;3.13;;;;;;;18.95;100.00;100723.47;5060949;28;20032;-70
2022/07/31 01:30:53;;;;;;;6.38;2.92;;;;;;;18.88;100.00;100715.09;5061905;28;20055;-70
2022/07/31 01:33:21;;;;;;;7.97;3.03;;;;;;;18.93;100.00;100725.38;5069641;28;20499;-70
2022/07/31 01:36:11;;;;;;;5.03;2.25;;;;;;;18.86;100.00;100714.38;5057320;28;20035;-70
2022/07/31 01:38:39;;;;;;;5.07;3.15;;;;;;;18.86;100.00;100718.84;5054493;28;20048;-70
2022/07/31 01:41:07;;;;;;;7.07;3.55;;;;;;;18.72;100.00;100695.16;5080642;28;20030;-70
2022/07/31 01:43:39;;;;;;;9.65;3.60;;;;;;;18.70;100.00;100691.75;5062018;28;20036;-70
2022/07/31 01:46:07;;;;;;;13.48;3.45;;;;;;;18.71;100.00;100701.44;5082603;28;20039;-70
2022/07/31 01:48:33;;;;;;;6.47;2.53;;;;;;;18.62;100.00;100687.00;5060141;28;20024;-70
2022/07/31 01:51:01;;;;;;;5.55;2.97;;;;;;;18.67;100.00;100692.84;5083088;28;20024;-71
2022/07/31 01:53:30;;;;;;;5.13;3.28;;;;;;;18.64;100.00;100702.88;5058911;28;20463;-70
2022/07/31 01:55:56;;;;;;;6.03;2.90;;;;;;;18.22;100.00;100638.69;5058048;28;20024;-70
2022/07/31 01:58:23;;;;;;;5.50;2.65;;;;;;;18.58;100.00;100698.03;5053994;28;20139;-70
2022/07/31 02:00:50;;;;;;;4.65;2.35;;;;;;;18.51;100.00;100689.69;5076102;28;20035;-70
2022/07/31 02:03:16;;;;;;;4.43;2.53;;;;;;;18.54;100.00;100708.09;5083920;28;20043;-70
2022/07/31 02:05:42;;;;;;;4.20;2.22;;;;;;;18.44;100.00;100690.25;5048517;28;20032;-70
2022/07/31 02:08:08;;;;;;;4.75;1.90;;;;;;;18.51;100.00;100707.47;5069114;28;20040;-70
2022/07/31 02:10:34;;;;;;;5.57;2.60;;;;;;;18.49;100.00;100710.22;5061190;28;20033;-70
2022/07/31 02:13:01;;;;;;;4.57;2.25;;;;;;;18.44;100.00;100707.06;5059301;28;20060;-70
2022/07/31 02:15:27;;;;;;;7.35;2.40;;;;;;;18.44;100.00;100712.41;5084058;28;20024;-70
2022/07/31 02:17:53;;;;;;;14.23;2.95;;;;;;;18.45;100.00;100718.56;5071216;28;20075;-70
2022/07/31 02:20:19;;;;;;;5.50;2.10;;;;;;;18.37;100.00;100716.50;5078860;28;20023;-70
2022/07/31 02:22:44;;;;;;;5.50;2.10;;;;;;;18.34;100.00;100711.41;5086534;28;20028;-70
2022/07/31 02:25:10;;;;;;;5.55;1.92;;;;;;;18.26;100.00;100697.84;5052231;28;20056;-70
2022/07/31 02:27:38;;;;;;;3.53;1.77;;;;;;;18.20;100.00;100696.50;5068226;28;20056;-70
2022/07/31 02:30:03;;;;;;;3.55;1.80;;;;;;;18.23;100.00;100714.91;5052692;28;20111;-70
2022/07/31 02:32:31;;;;;;;6.80;2.25;;;;;;;17.91;100.00;100670.47;5051534;28;20536;-70
2022/07/31 02:34:59;;;;;;;4.47;2.25;;;;;;;18.13;100.00;100713.91;5070705;28;20040;-71
2022/07/31 02:37:28;;;;;;;3.65;2.00;;;;;;;18.10;100.00;100722.13;5057561;28;20045;-71
2022/07/31 02:39:54;;;;;;;6.75;2.22;;;;;;;17.77;100.00;100674.16;5061655;28;20020;-70
2022/07/31 02:42:21;;;;;;;4.85;2.50;;;;;;;18.04;100.00;100714.63;5084109;28;20036;-70
2022/07/31 02:44:47;;;;;;;3.38;1.70;;;;;;;17.95;100.00;100702.00;5057224;28;20024;-70
2022/07/31 02:47:13;;;;;;;4.72;2.08;;;;;;;17.91;100.00;100686.41;5070278;28;20025;-70
2022/07/31 02:49:38;;;;;;;4.38;2.40;;;;;;;17.97;100.00;100704.56;5057428;28;20464;-71
2022/07/31 02:52:05;;;;;;;5.95;2.63;;;;;;;17.77;100.00;100684.81;5072236;28;20027;-70
2022/07/31 02:54:32;;;;;;;3.80;2.03;;;;;;;17.90;100.00;100703.31;5068009;28;20504;-70
2022/07/31 02:56:57;;;;;;;4.05;2.20;;;;;;;17.81;100.00;100696.91;5059449;28;20145;-70
2022/07/31 02:59:23;;;;;;;4.47;1.90;;;;;;;17.84;100.00;100707.31;5072325;28;20025;-70
2022/07/31 03:01:48;;;;;;;3.85;1.77;;;;;;;17.54;100.00;100657.22;5075832;28;20028;-70
2022/07/31 03:04:14;;;;;;;3.78;1.85;;;;;;;17.80;100.00;100706.69;5061407;28;20069;-71
2022/07/31 03:06:39;;;;;;;6.53;2.05;;;;;;;17.73;100.00;100699.28;5064257;28;20025;-70
2022/07/31 03:09:04;;;;;;;3.50;2.08;;;;;;;17.63;100.00;100677.00;5071583;28;20029;-70
2022/07/31 03:11:30;;;;;;;3.72;1.70;;;;;;;17.62;100.00;100677.97;5056893;28;20037;-70
2022/07/31 03:13:57;;;;;;;3.88;2.08;;;;;;;17.72;100.00;100700.22;5056461;28;20020;-70
2022/07/31 03:16:23;;;;;;;5.75;2.25;;;;;;;17.64;100.00;100687.50;5070995;28;20429;-70
2022/07/31 03:18:48;;;;;;;3.17;1.90;;;;;;;17.63;100.00;100684.97;5079104;28;20079;-69
2022/07/31 03:21:14;;;;;;;6.32;2.00;;;;;;;17.66;100.00;100690.06;5058310;28;20035;-69
2022/07/31 03:23:39;;;;;;;4.32;2.00;;;;;;;17.58;100.00;100679.16;5070295;28;20037;-69
2022/07/31 03:26:05;;;;;;;3.53;1.95;;;;;;;17.62;100.00;100686.78;5062982;28;20468;-69
2022/07/31 03:28:32;;;;;;;4.50;2.13;;;;;;;17.63;100.00;100687.63;5068740;28;20035;-69
2022/07/31 03:30:58;;;;;;;4.75;1.83;;;;;;;17.65;100.00;100697.19;5078688;28;20056;-69
2022/07/31 03:33:23;;;;;;;3.25;1.70;;;;;;;17.56;100.00;100676.63;5080271;28;20495;-72
2022/07/31 03:35:49;;;;;;;4.75;1.90;;;;;;;17.60;100.00;100682.56;5070092;28;20521;-72
2022/07/31 03:38:15;;;;;;;6.00;2.35;;;;;;;17.68;100.00;100690.78;5070325;28;20108;-72
2022/07/31 03:40:40;;;;;;;3.85;2.22;;;;;;;17.68;100.00;100686.31;5101434;27;20033;-72
2022/07/31 03:43:06;;;;;;;5.40;2.65;;;;;;;17.68;100.00;100688.13;5069228;28;20031;-70
2022/07/31 03:45:33;;;;;;;3.80;2.33;;;;;;;17.64;100.00;100684.84;5065509;28;20471;-70
2022/07/31 03:48:00;;;;;;;3.92;2.00;;;;;;;17.66;100.00;100682.09;5091925;28;20069;-72
2022/07/31 03:50:25;;;;;;;5.75;2.22;;;;;;;17.58;100.00;100669.38;5067906;28;20063;-72
2022/07/31 03:52:51;;;;;;;5.57;2.30;;;;;;;17.66;100.00;100684.75;5073553;28;20048;-72
2022/07/31 03:55:16;;;;;;;5.88;2.50;;;;;;;17.68;100.00;100693.44;5066665;28;20094;-72
2022/07/31 03:57:42;;;;;;;4.05;2.38;;;;;;;17.63;100.00;100679.66;5080422;28;20036;-72
2022/07/31 04:00:09;;;;;;;4.57;2.60;;;;;;;17.65;100.00;100675.06;5060127;28;20043;-72
2022/07/31 04:02:35;;;;;;;5.38;2.55;;;;;;;17.61;100.00;100669.13;5060337;28;20047;-70
2022/07/31 04:05:00;;;;;;;4.60;2.55;;;;;;;17.38;100.00;100638.94;5059740;28;20454;-70
2022/07/31 04:07:26;;;;;;;3.95;2.58;;;;;;;17.56;100.00;100676.63;5058292;28;20036;-69
2022/07/31 04:09:51;;;;;;;4.50;2.33;;;;;;;17.57;100.00;100677.47;5061604;28;20031;-70
2022/07/31 04:12:17;;;;;;;4.97;2.30;;;;;;;17.50;100.00;100679.72;5063623;28;20050;-71
2022/07/31 04:14:42;;;;;;;6.03;2.88;;;;;;;17.27;100.00;100641.53;5085332;28;20028;-70
2022/07/31 04:17:08;;;;;;;3.75;2.00;;;;;;;17.57;100.00;100688.09;5088543;28;20021;-71
2022/07/31 04:19:33;;;;;;;3.17;1.73;;;;;;;17.49;100.00;100675.34;5083391;28;20028;-70
2022/07/31 04:21:59;;;;;;;3.88;2.30;;;;;;;17.53;100.00;100686.59;5076953;28;20392;-71
2022/07/31 04:24:25;;;;;;;4.22;1.95;;;;;;;17.50;100.00;100692.16;5064952;28;20035;-69
2022/07/31 04:26:53;;;;;;;2.92;1.90;;;;;;;17.07;100.00;100625.38;5075269;28;20040;-70
2022/07/31 04:29:18;;;;;;;5.47;2.30;;;;;;;17.37;100.00;100682.41;5053581;28;20021;-70
2022/07/31 04:31:44;;;;;;;5.00;2.30;;;;;;;17.43;100.00;100696.22;5054078;28;20028;-70
2022/07/31 04:34:09;;;;;;;3.42;2.13;;;;;;;17.22;100.00;100672.91;5071888;28;20048;-70
2022/07/31 04:36:34;;;;;;;6.25;2.42;;;;;;;17.38;100.00;100688.56;5055885;28;20730;-70
2022/07/31 04:39:00;;;;;;;4.47;1.98;;;;;;;17.41;100.00;100698.97;5056074;28;20124;-71
2022/07/31 04:41:26;;;;;;;4.50;2.28;;;;;;;17.42;100.00;100694.50;5055362;28;20518;-70
2022/07/31 04:43:52;;;;;;;5.57;2.28;;;;;;;17.40;100.00;100691.13;5080476;28;20056;-70
2022/07/31 04:46:17;;;;;;;3.38;2.15;;;;;;;17.54;100.00;100704.25;5087847;28;20452;-70
2022/07/31 04:48:42;;;;;;;4.70;2.63;;;;;;;17.58;100.00;100711.03;5057379;28;20029;-70
2022/07/31 04:51:08;;;;;;;3.53;2.30;;;;;;;17.55;100.00;100695.28;5068209;28;20032;-70
2022/07/31 04:53:33;;;;;;;6.22;2.78;;;;;;;17.62;100.00;100717.81;5073174;28;20038;-70
2022/07/31 04:58:42;;;;;;;4.27;2.50;;;;;;;17.62;100.00;100709.84;5079512;28;20050;-70
2022/07/31 05:01:08;;;;;;;3.75;2.42;;;;;;;17.56;100.00;100707.66;5075817;28;20389;-70
2022/07/31 05:03:33;;;;;;;4.78;2.53;;;;;;;17.58;100.00;100705.72;5062103;28;20447;-70
2022/07/31 05:06:10;;;;;;;3.15;2.08;;;;;;;17.63;100.00;100712.41;5078900;28;20034;-70
2022/07/31 05:08:35;;;;;;;3.28;2.17;;;;;;;17.63;100.00;100715.06;5079090;28;20434;-70
2022/07/31 05:13:44;;;;;;;3.85;2.05;;;;;;;17.53;100.00;100694.56;5067296;28;20043;-70
2022/07/31 05:16:10;;;;;;;5.13;1.98;;;;;;;17.57;100.00;100701.38;5061113;28;20447;-70
2022/07/31 05:18:36;;;;;;;4.00;2.42;;;;;;;17.36;100.00;100675.41;5078097;28;20486;-70
2022/07/31 05:21:02;;;;;;;4.10;2.35;;;;;;;17.50;100.00;100694.81;5082505;28;20060;-70
2022/07/31 05:23:27;;;;;;;3.95;2.35;;;;;;;17.46;100.00;100685.34;5067553;28;20403;-70
2022/07/31 05:25:53;;;;;;;4.50;2.75;;;;;;;17.50;100.00;100681.50;5044460;28;20061;-69
2022/07/31 05:28:18;;;;;;;4.47;2.33;;;;;;;17.31;100.00;100656.28;5059415;28;20031;-69
2022/07/31 05:30:43;;;;;;;4.28;2.25;;;;;;;17.56;100.00;100683.75;5067626;28;20040;-69
2022/07/31 05:33:09;;;;;;;6.35;2.65;;;;;;;17.56;100.00;100687.25;5078135;28;20023;-70
2022/07/31 05:35:34;;;;;;;4.40;2.55;;;;;;;17.62;100.00;100694.75;5038695;28;20113;-70
2022/07/31 05:38:00;;;;;;;5.80;2.83;;;;;;;17.62;100.00;100699.22;5059910;28;20024;-70
2022/07/31 05:40:25;;;;;;;6.28;2.75;;;;;;;17.52;100.00;100674.25;5080169;28;20020;-69
2022/07/31 05:42:51;;;;;;;6.22;2.58;;;;;;;17.56;100.00;100686.41;5067876;28;20021;-70
2022/07/31 05:45:16;;;;;;;7.00;2.65;;;;;;;17.62;100.00;100689.44;5064464;28;20040;-69
2022/07/31 05:47:42;;;;;;;4.63;2.25;;;;;;;17.50;100.00;100670.88;5045871;28;20029;-70
2022/07/31 05:50:08;;;;;;;5.07;2.53;;;;;;;17.53;100.00;100681.28;5048154;28;20029;-70
2022/07/31 05:52:33;;;;;;;4.28;1.98;;;;;;;17.61;100.00;100685.09;5079472;28;20119;-70
2022/07/31 05:54:59;;;;;;;5.03;2.70;;;;;;;17.67;100.00;100689.97;5065551;28;20064;-69
2022/07/31 05:57:24;;;;;;;4.50;2.38;;;;;;;17.74;100.00;100691.16;5056461;28;20012;-69
2022/07/31 05:59:50;;;;;;;5.78;2.40;;;;;;;17.83;100.00;100689.66;5061880;28;20033;-70
2022/07/31 06:02:15;;;;;;;5.10;2.60;;;;;;;17.80;100.00;100668.63;5055029;28;20025;-69
2022/07/31 06:04:40;;;;;;;4.72;2.55;;;;;;;17.92;100.00;100686.28;5052305;28;20056;-69
2022/07/31 06:07:06;;;;;;;5.82;2.60;;;;;;;17.91;100.00;100678.44;5057532;28;20070;-68
2022/07/31 06:09:31;;;;;;;4.68;2.85;;;;;;;17.95;100.00;100688.69;5052597;28;20029;-70
2022/07/31 06:11:56;;;;;;;3.42;2.47;;;;;;;17.83;100.00;100666.56;5070707;28;20063;-68
2022/07/31 06:14:22;;;;;;;8.77;2.78;;;;;;;17.93;100.00;100674.69;5049192;28;20468;-69
2022/07/31 06:16:49;;;;;;;5.82;2.63;;;;;;;17.90;100.00;100669.59;5060844;28;20031;-69
2022/07/31 06:19:14;;;;;;;4.70;2.55;;;;;;;17.84;100.00;100659.44;5087485;28;20028;-69
2022/07/31 06:21:40;;;;;;;3.90;2.63;;;;;;;17.96;100.00;100678.91;5083095;28;20037;-70
2022/07/31 06:24:05;;;;;;;4.68;2.58;;;;;;;18.12;100.00;100698.06;5083696;28;20024;-70
2022/07/31 06:26:31;;;;;;;5.93;2.33;;;;;;;18.10;100.00;100678.72;5072613;28;20677;-70
2022/07/31 06:28:56;;;;;;;5.72;2.58;;;;;;;18.22;100.00;100691.06;5086238;28;20089;-70
2022/07/31 06:31:22;;;;;;;9.73;2.05;;;;;;;18.27;100.00;100684.44;5082112;28;20035;-70
2022/07/31 06:33:48;;;;;;;5.72;2.78;;;;;;;18.47;100.00;100690.00;5072251;28;20024;-69
2022/07/31 06:36:14;;;;;;;5.05;2.50;;;;;;;18.47;100.00;100674.03;5078415;28;20036;-69
2022/07/31 06:38:39;;;;;;;3.63;1.63;;;;;;;18.51;100.00;100671.06;5072669;28;20367;-70
2022/07/31 06:41:04;;;;;;;4.03;2.03;;;;;;;18.64;100.00;100670.94;5059432;28;20041;-70
2022/07/31 06:43:30;;;;;;;3.95;2.40;;;;;;;18.66;100.00;100676.97;5079155;28;20508;-68
2022/07/31 06:45:55;;;;;;;5.40;2.30;;;;;;;18.61;100.00;100666.72;5065527;28;20033;-71
2022/07/31 06:48:20;;;;;;;3.65;2.13;;;;;;;18.70;100.00;100673.09;5084126;28;20021;-70
2022/07/31 06:50:48;;;;;;;3.35;1.80;;;;;;;18.69;100.00;100663.44;5072300;28;20395;-70
2022/07/31 06:53:13;;;;;;;6.53;2.60;;;;;;;18.73;100.00;100667.53;5078337;28;20025;-70
2022/07/31 06:55:38;;;;;;;4.20;2.22;;;;;;;18.80;100.00;100682.06;5071293;28;20024;-70
2022/07/31 06:58:04;;;;;;;4.25;2.40;;;;;;;18.83;100.00;100676.47;5086031;28;20117;-69
2022/07/31 07:00:30;;;;;;;3.60;2.10;;;;;;;18.97;100.00;100688.69;5078780;28;20035;-70
2022/07/31 07:02:55;;;;;;;3.95;2.13;;;;;;;18.97;100.00;100673.56;5078268;28;20021;-70
2022/07/31 07:05:20;;;;;;;4.63;2.45;;;;;;;19.02;100.00;100674.06;5075950;28;20020;-70
2022/07/31 07:07:46;;;;;;;5.00;2.33;;;;;;;19.07;100.00;100674.50;5076049;28;20024;-69
2022/07/31 07:10:12;;;;;;;4.00;1.95;;;;;;;19.08;100.00;100678.03;5058915;28;20064;-70
2022/07/31 07:12:37;;;;;;;3.42;2.03;;;;;;;18.98;100.00;100653.09;5056267;28;20028;-70
2022/07/31 07:15:03;;;;;;;4.10;2.50;;;;;;;19.06;100.00;100659.50;5087701;28;20027;-70
2022/07/31 07:17:29;;;;;;;4.28;2.60;;;;;;;19.07;100.00;100657.69;5080627;28;20024;-70
2022/07/31 07:19:54;;;;;;;3.22;2.25;;;;;;;19.05;100.00;100652.50;5071492;28;20032;-70
2022/07/31 07:22:20;;;;;;;3.40;2.03;;;;;;;19.20;100.00;100677.88;5081536;28;20054;-70
2022/07/31 07:24:45;;;;;;;4.20;2.33;;;;;;;19.16;100.00;100656.94;5083500;28;20082;-70
2022/07/31 07:27:10;;;;;;;3.45;2.20;;;;;;;19.23;100.00;100672.28;5078958;28;20106;-70
2022/07/31 07:29:36;;;;;;;4.25;2.40;;;;;;;19.26;100.00;100674.69;5086364;28;20025;-69
2022/07/31 07:32:01;;;;;;;4.25;2.28;;;;;;;19.32;100.00;100671.56;5089936;28;20047;-69
2022/07/31 07:34:27;;;;;;;4.45;2.38;;;;;;;19.31;100.00;100671.66;5095769;28;20028;-70
2022/07/31 07:36:52;;;;;;;11.50;3.20;;;;;;;19.26;100.00;100653.38;5083948;28;20070;-70
2022/07/31 07:39:18;;;;;;;3.95;2.22;;;;;;;19.36;100.00;100669.47;5074568;28;20456;-70
2022/07/31 07:41:43;;;;;;;8.00;2.38;;;;;;;19.37;100.00;100661.34;5075262;28;20044;-69
2022/07/31 07:44:09;;;;;;;6.35;2.83;;;;;;;19.39;100.00;100674.56;5075620;28;20060;-69
2022/07/31 07:46:34;;;;;;;3.90;2.50;;;;;;;19.36;100.00;100670.31;5074975;28;20487;-71
2022/07/31 07:49:01;;;;;;;5.45;3.15;;;;;;;19.46;100.00;100673.13;5075331;28;20021;-70
2022/07/31 07:51:26;;;;;;;4.00;2.80;;;;;;;19.49;100.00;100664.00;5075576;28;20475;-70
2022/07/31 07:53:51;;;;;;;5.93;3.15;;;;;;;19.59;100.00;100663.13;5058353;28;20043;-69
2022/07/31 07:56:17;;;;;;;8.48;3.58;;;;;;;19.72;100.00;100673.59;5057926;28;20061;-70
2022/07/31 07:58:42;;;;;;;5.10;3.17;;;;;;;19.72;100.00;100684.28;5062111;28;20024;-70
2022/07/31 08:01:08;;;;;;;6.55;3.28;;;;;;;19.49;100.00;100640.03;5055709;28;20150;-70
2022/07/31 08:03:33;;;;;;;7.15;3.10;;;;;;;19.69;100.00;100676.53;5062548;28;20032;-71
2022/07/31 08:05:59;;;;;;;6.55;3.17;;;;;;;19.69;100.00;100660.53;5057287;28;20032;-71
2022/07/31 08:08:24;;;;;;;4.72;2.92;;;;;;;19.77;100.00;100656.22;5057908;28;20021;-70
2022/07/31 08:10:49;;;;;;;5.15;2.88;;;;;;;19.82;100.00;100667.38;5058792;28;20037;-71
2022/07/31 08:13:15;;;;;;;6.13;2.95;;;;;;;19.80;100.00;100666.63;5054551;28;20033;-73
2022/07/31 08:15:40;;;;;;;4.95;2.50;;;;;;;19.75;100.00;100644.00;5070478;28;20051;-71
2022/07/31 08:18:06;;;;;;;4.65;3.00;;;;;;;19.95;100.00;100661.84;5066927;28;20077;-71
2022/07/31 08:20:31;;;;;;;6.53;3.28;;;;;;;19.98;100.00;100645.56;5064014;28;20036;-69
2022/07/31 08:22:56;;;;;;;4.20;3.05;;;;;;;20.18;100.00;100650.03;5062098;28;20024;-70
2022/07/31 08:25:22;;;;;;;4.55;2.70;;;;;;;20.36;100.00;100669.00;5056825;28;20076;-71
2022/07/31 08:27:48;;;;;;;4.80;3.72;;;;;;;20.51;100.00;100653.47;5102789;27;20024;-70
2022/07/31 08:30:14;;;;;;;5.13;3.22;;;;;;;20.70;100.00;100627.69;5082598;28;20024;-71
2022/07/31 08:32:39;;;;;;;6.13;3.55;;;;;;;21.05;100.00;100655.75;5067596;28;20051;-71
2022/07/31 08:35:05;;;;;;;5.72;3.55;;;;;;;20.90;100.00;100641.94;5059313;28;20480;-69
2022/07/31 08:37:31;;;;;;;8.73;3.45;;;;;;;20.81;100.00;100645.44;5086748;28;20033;-70
2022/07/31 08:39:56;;;;;;;9.48;3.85;;;;;;;20.82;100.00;100644.44;5068707;28;20035;-71
2022/07/31 08:42:23;;;;;;;5.55;3.95;;;;;;;20.95;100.00;100653.06;5087277;28;20024;-71
2022/07/31 08:44:48;;;;;;;5.03;2.90;;;;;;;21.20;100.00;100655.25;5075232;28;20108;-71
2022/07/31 08:47:15;;;;;;;5.18;3.17;;;;;;;21.42;100.00;100656.84;5064263;28;20023;-71
2022/07/31 08:49:43;;;;;;;7.13;3.88;;;;;;;21.53;100.00;100658.53;5078995;28;20406;-70
2022/07/31 08:52:10;;;;;;;5.80;3.78;;;;;;;21.31;100.00;100617.69;5066059;28;20039;-71
2022/07/31 08:54:36;;;;;;;5.45;4.07;;;;;;;21.48;100.00;100637.56;5063654;28;20044;-70
2022/07/31 08:57:02;;;;;;;4.40;3.47;;;;;;;21.56;100.00;100647.56;5093477;27;20025;-71
2022/07/31 08:59:27;;;;;;;4.97;3.00;;;;;;;21.33;100.00;100610.38;5085734;28;20139;-70
2022/07/31 09:01:55;;;;;;;6.90;3.95;;;;;;;21.59;100.00;100652.63;5054088;28;20028;-70
2022/07/31 09:04:22;;;;;;;8.07;3.60;;;;;;;21.56;100.00;100658.25;5061849;28;20028;-69
2022/07/31 09:06:48;;;;;;;4.90;3.08;;;;;;;21.49;100.00;100647.28;5055900;28;20392;-69
2022/07/31 09:09:15;;;;;;;6.03;3.85;;;;;;;21.59;100.00;100661.50;5095078;28;20028;-70
2022/07/31 09:11:48;;;;;;;4.43;3.30;;;;;;;21.56;100.00;100653.75;5053768;28;20033;-71
2022/07/31 09:14:22;;;;;;;5.85;4.32;;;;;;;21.66;100.00;100651.91;5085508;27;20475;-71
2022/07/31 09:16:49;;;;;;;4.60;3.50;;;;;;;21.83;100.00;100656.53;5060649;28;20025;-70
2022/07/31 09:19:14;;;;;;;5.38;3.60;;;;;;;21.70;100.00;100596.28;5052634;28;20116;-70
2022/07/31 09:21:42;;;;;;;8.63;3.35;;;;;;;22.23;100.00;100645.66;5055549;28;20108;-70
2022/07/31 09:24:09;;;;;;;4.53;2.83;;;;;;;22.54;100.00;100640.03;5089235;28;20031;-70
2022/07/31 09:26:35;;;;;;;3.80;3.00;;;;;;;22.78;100.00;100640.34;5053809;28;20503;-70
2022/07/31 09:29:07;;;;;;;4.18;2.83;;;;;;;22.97;100.00;100642.09;5061692;28;20035;-71
2022/07/31 09:31:33;;;;;;;4.63;2.92;;;;;;;23.13;100.00;100615.47;5056255;28;20032;-71
2022/07/31 09:33:59;;;;;;;5.13;3.13;;;;;;;23.52;100.00;100632.13;5062716;28;20033;-72
2022/07/31 09:36:24;;;;;;;4.47;2.92;;;;;;;23.64;100.00;100620.16;5061863;28;20025;-71
2022/07/31 09:38:50;;;;;;;4.60;3.10;;;;;;;23.70;100.00;100631.13;5073597;28;20045;-70
2022/07/31 09:41:17;;;;;;;5.10;3.17;;;;;;;23.48;100.00;100614.66;5062576;28;20020;-71
2022/07/31 09:43:53;;;;;;;6.88;3.67;;;;;;;23.46;100.00;100638.09;5057637;28;20044;-71
2022/07/31 09:46:18;;;;;;;8.10;3.22;;;;;;;23.20;100.00;100587.88;5070896;28;20028;-70
2022/07/31 09:48:50;;;;;;;5.38;3.17;;;;;;;23.56;100.00;100633.50;5072437;28;20048;-71
2022/07/31 09:51:15;;;;;;;4.70;3.15;;;;;;;23.60;100.00;100614.25;5059019;28;20033;-72
2022/07/31 09:53:51;;;;;;;7.03;3.58;;;;;;;23.76;100.00;100637.72;5075444;28;20032;-70
2022/07/31 09:56:17;;;;;;;6.75;4.35;;;;;;;23.74;100.00;100631.66;5076031;28;20073;-70
2022/07/31 09:58:42;;;;;;;5.22;3.80;;;;;;;23.67;100.00;100630.56;5072042;28;20086;-71
2022/07/31 10:01:09;;;;;;;4.85;3.45;;;;;;;23.68;100.00;100624.22;5082850;28;20102;-71
2022/07/31 10:03:37;;;;;;;4.97;3.03;;;;;;;23.68;100.00;100616.16;5061735;28;20055;-71
2022/07/31 10:06:03;;;;;;;5.75;3.55;;;;;;;23.76;100.00;100613.56;5079877;28;20056;-71
2022/07/31 10:08:33;;;;;;;7.10;3.33;;;;;;;23.84;100.00;100616.28;5072452;28;20020;-69
2022/07/31 10:10:58;;;;;;;5.30;3.22;;;;;;;23.91;100.00;100610.16;5080348;28;20368;-71
2022/07/31 10:13:24;;;;;;;4.97;3.10;;;;;;;23.97;100.00;100592.56;5054214;28;20083;-71
2022/07/31 10:15:51;;;;;;;4.03;2.72;;;;;;;24.38;100.00;100632.13;5061146;28;20036;-70
2022/07/31 10:18:17;;;;;;;7.53;3.78;;;;;;;24.48;100.00;100618.56;5055609;28;20377;-70
2022/07/31 10:20:48;;;;;;;6.47;3.50;;;;;;;24.70;100.00;100635.97;5073191;28;20032;-70
2022/07/31 10:23:15;;;;;;;5.82;3.08;;;;;;;24.54;100.00;100630.50;5088010;28;20035;-71
2022/07/31 10:25:44;;;;;;;4.18;2.80;;;;;;;24.46;100.00;100625.94;5062332;28;20475;-70
2022/07/31 10:28:10;;;;;;;5.93;3.92;;;;;;;24.34;100.00;100630.75;5070166;28;20021;-71
2022/07/31 10:30:37;;;;;;;6.93;3.33;;;;;;;24.27;100.00;100621.63;5073019;28;20537;-71
2022/07/31 10:33:05;;;;;;;5.43;2.92;;;;;;;24.43;100.00;100602.91;5073454;28;20033;-70
2022/07/31 10:35:31;;;;;;;6.10;2.88;;;;;;;24.76;100.00;100620.03;5065720;28;20071;-71
2022/07/31 10:38:02;;;;;;;10.05;3.22;;;;;;;25.01;100.00;100620.97;5053777;28;20056;-71
2022/07/31 10:40:47;;;;;;;4.45;2.50;;;;;;;25.09;100.00;100625.53;5087674;28;20036;-71
2022/07/31 10:43:27;;;;;;;3.83;2.60;;;;;;;25.13;100.00;100616.13;5053033;28;20028;-71
2022/07/31 10:45:54;;;;;;;6.85;2.83;;;;;;;25.10;100.00;100616.47;5052048;28;20412;-71
2022/07/31 10:48:20;;;;;;;6.53;4.05;;;;;;;24.99;100.00;100597.94;5065639;28;20087;-71
2022/07/31 10:50:47;;;;;;;5.93;3.50;;;;;;;25.09;100.00;100596.78;5058080;28;20029;-71
2022/07/31 10:53:15;;;;;;;7.72;3.60;;;;;;;25.27;100.00;100608.25;5087295;28;20029;-71
2022/07/31 10:55:41;;;;;;;4.00;3.10;;;;;;;25.19;100.00;100604.69;5082441;28;20206;-72
2022/07/31 10:58:08;;;;;;;4.28;2.85;;;;;;;25.24;100.00;100603.22;5052648;28;20086;-72
2022/07/31 11:00:33;;;;;;;4.60;3.22;;;;;;;25.33;100.00;100601.34;5046574;28;20028;-70
2022/07/31 11:02:59;;;;;;;5.18;3.08;;;;;;;25.31;100.00;100604.19;5056496;28;20037;-70
2022/07/31 11:05:27;;;;;;;5.45;3.40;;;;;;;25.48;100.00;100596.16;5067035;28;20506;-70
2022/07/31 11:08:01;;;;;;;6.38;3.45;;;;;;;25.49;100.00;100585.22;5056324;28;20029;-70
2022/07/31 11:10:26;;;;;;;5.20;3.05;;;;;;;25.23;100.00;100585.38;5055080;28;20064;-70
2022/07/31 11:12:59;;;;;;;6.18;2.70;;;;;;;25.15;100.00;100597.97;5054577;28;20057;-70
2022/07/31 11:15:25;;;;;;;4.15;2.85;;;;;;;25.10;100.00;100598.47;5059188;28;20033;-70
2022/07/31 11:17:51;;;;;;;3.80;2.63;;;;;;;24.89;100.00;100596.25;5051826;28;20115;-70
2022/07/31 11:20:25;;;;;;;3.97;2.08;;;;;;;24.82;100.00;100591.63;5052003;28;20487;-73